Data for 08/29/2013

Time Sea-Level Adjusted Pressure Absolute Pressure Temperature Relative Humidity Dew Point   
(mb) (inHg) (mb) (inHg) (C) (F) (%) (C) (F)
00:05 1022 30.18 851 25.13 16 60.9 64 9.4 48.9
00:10 1022 30.18 851 25.13 15.6 60.1 65 9.2 48.5
00:15 1022 30.18 851 25.13 15.5 59.8 65 9.1 48.3
00:20 1022 30.18 851 25.13 15.5 59.9 64 8.9 48
00:25 1022 30.18 851 25.13 15.8 60.4 63 8.9 48
00:30 1022 30.18 851 25.13 15.8 60.5 63 8.8 47.8
00:35 1022 30.18 852 25.16 16.1 61.1 62 8.8 47.9
00:40 1022 30.18 852 25.16 16.2 61.1 66 10 50
00:45 1022 30.18 852 25.16 16 60.7 62 8.8 47.9
00:50 1022 30.18 852 25.16 15.9 60.7 63 8.9 48.1
00:55 1022 30.18 851 25.13 15.5 60 64 8.8 47.8
01:00 1022 30.18 851 25.13 15.4 59.7 65 8.9 48.1
01:05 1022 30.18 851 25.13 15.1 59.2 66 9 48.1
01:10 1022 30.18 851 25.13 14.9 58.9 67 8.8 47.9
01:15 1022 30.18 852 25.16 14.9 58.8 67 8.8 47.8
01:20 1022 30.18 852 25.16 14.9 58.7 65 8.3 46.9
01:25 1022 30.18 852 25.16 15.5 59.9 61 8.1 46.7
01:30 1022 30.18 852 25.16 16.1 60.9 61 8.7 47.6
01:35 1022 30.18 852 25.16 15.7 60.2 63 8.7 47.6
01:40 1022 30.18 852 25.16 15.3 59.5 66 9 48.1
01:45 1022 30.18 852 25.16 14.5 58.1 69 8.9 48.1
01:50 1022 30.18 852 25.16 14.1 57.3 68 8.4 47.1
01:55 1022 30.18 852 25.16 14 57.1 70 8.6 47.4
02:00 1022 30.18 852 25.16 13.7 56.7 68 8 46.4
02:05 1022 30.18 852 25.16 14.8 58.6 62 7.7 45.8
02:10 1022 30.18 852 25.16 15.6 60 62 8.3 47
02:15 1022 30.18 852 25.16 15.3 59.6 63 8.3 47
02:20 1022 30.18 852 25.16 15.2 59.4 64 8.4 47.2
02:25 1022 30.18 852 25.16 15 59.1 64 8.4 47
02:30 1022 30.18 852 25.16 14.8 58.6 65 8.3 46.9
02:35 1022 30.18 852 25.16 14.7 58.4 66 8.5 47.3
02:40 1022 30.18 852 25.16 14.2 57.5 68 8.4 47.1
02:45 1022 30.18 852 25.16 14.2 57.5 67 8.2 46.7
02:50 1022 30.18 852 25.16 14.4 58 65 7.9 46.2
02:55 1022 30.18 852 25.16 14.8 58.6 63 8 46.3
03:00 1022 30.18 852 25.16 14.8 58.6 65 8.3 47
03:05 1022 30.18 852 25.16 14.6 58.2 64 7.9 46.3
03:10 1022 30.18 852 25.16 14.8 58.7 65 8.3 46.9
03:15 1022 30.18 852 25.16 14.8 58.6 64 8.2 46.7
03:20 1023 30.21 852 25.16 14.6 58.3 66 8.4 47.2
03:25 1023 30.21 852 25.16 14.7 58.5 64 8 46.5
03:30 1022 30.18 852 25.16 15 58.9 64 8.3 46.9
03:35 1022 30.18 852 25.16 14.9 58.8 64 8.2 46.8
03:40 1023 30.21 852 25.16 14.9 58.9 63 8.1 46.6
03:45 1023 30.21 852 25.16 15.2 59.3 63 8.2 46.8
03:50 1023 30.21 852 25.16 15.1 59.1 64 8.5 47.2
03:55 1023 30.21 852 25.16 14.7 58.4 65 8.3 47
04:00 1023 30.21 852 25.16 14.4 58 66 8.3 46.9
04:05 1023 30.21 852 25.16 14.5 58 66 8.2 46.8
04:10 1023 30.21 852 25.16 14.6 58.3 64 8 46.4
04:15 1023 30.21 852 25.16 14.4 58 67 8.6 47.4
04:20 1023 30.21 852 25.16 14 57.2 67 8.1 46.5
04:25 1023 30.21 852 25.16 14.2 57.6 66 8.1 46.5
04:30 1023 30.21 852 25.16 14 57.3 68 8.3 46.9
04:35 1023 30.21 852 25.16 13.8 56.8 68 8 46.4
04:40 1023 30.21 852 25.16 13.6 56.5 69 8 46.4
04:45 1023 30.21 852 25.16 13.5 56.3 68 7.8 46
04:50 1023 30.21 852 25.16 13.9 57 66 7.8 46
04:55 1023 30.21 852 25.16 14 57.2 67 7.9 46.3
05:00 1023 30.21 852 25.16 14.4 57.9 63 7.6 45.7
05:05 1023 30.21 852 25.16 14.7 58.5 62 7.5 45.6
05:10 1023 30.21 852 25.16 14.8 58.6 62 7.7 45.8
05:15 1023 30.21 852 25.16 14.6 58.3 63 7.7 45.9
05:20 1023 30.21 852 25.16 14.6 58.3 62 7.5 45.5
05:25 1023 30.21 852 25.16 14.9 58.9 61 7.6 45.7
05:30 1023 30.21 852 25.16 14.9 58.8 63 7.9 46.3
05:35 1023 30.21 852 25.16 14.6 58.3 65 8.1 46.6
05:40 1023 30.21 852 25.16 14.4 57.9 66 8.1 46.6
05:45 1023 30.21 852 25.16 14.1 57.4 67 8.1 46.6
05:50 1023 30.21 852 25.16 13.8 56.9 68 8.2 46.7
05:55 1023 30.21 852 25.16 13.9 57.1 69 8.4 47.1
06:00 1023 30.21 852 25.16 14.2 57.5 67 8.2 46.8
06:05 1023 30.21 852 25.16 14.1 57.5 67 8.2 46.7
06:10 1023 30.21 852 25.16 13.8 56.9 68 8 46.4
06:15 1023 30.21 852 25.16 14 57.1 66 7.7 45.9
06:20 1023 30.21 852 25.16 14.6 58.2 63 7.6 45.6
06:25 1023 30.21 852 25.16 15 58.9 63 8 46.4
06:30 1023 30.21 852 25.16 15.2 59.4 61 7.9 46.3
06:35 1023 30.21 852 25.16 15.1 59.1 63 8.2 46.8
06:40 1023 30.21 852 25.16 15.2 59.3 63 8.3 46.9
06:45 1023 30.21 852 25.16 15.4 59.8 63 8.5 47.3
06:50 1023 30.21 852 25.16 15.6 60.1 63 8.7 47.6
06:55 1023 30.21 852 25.16 15.7 60.3 62 8.5 47.4
07:00 1023 30.21 852 25.16 16 60.8 60 8.3 46.9
07:05 1023 30.21 852 25.16 16.2 61.1 59 8.3 47
07:10 1023 30.21 853 25.19 16.5 61.6 59 8.5 47.3
07:15 1023 30.21 853 25.19 16.8 62.2 57 8.3 46.9
07:20 1023 30.21 853 25.19 17.4 63.4 55 8.4 47.1
07:25 1023 30.21 853 25.19 18.1 64.5 54 8.6 47.5
07:30 1023 30.21 853 25.19 18.5 65.2 53 8.8 47.8
07:35 1023 30.21 853 25.19 18.5 65.4 51 8.4 47.2
07:40 1023 30.21 853 25.19 18.4 65.1 54 9.1 48.4
07:45 1023 30.21 853 25.19 18.1 64.6 54 8.8 47.9
07:50 1023 30.21 853 25.19 17.7 63.9 56 9 48.2
07:55 1023 30.21 853 25.19 17.8 64 57 9.2 48.5
08:00 1023 30.21 853 25.19 18.4 65.1 54 9 48.2
08:05 1023 30.21 853 25.19 19.1 66.4 50 8.6 47.6
08:10 1023 30.21 853 25.19 19.4 66.9 49 8.6 47.5
08:15 1023 30.21 853 25.19 20 68.1 47 8.6 47.5
08:20 1023 30.21 853 25.19 20.6 69 47 9 48.2
08:25 1023 30.21 853 25.19 20.5 69 46 8.8 47.8
08:30 1023 30.21 853 25.19 20.6 69.1 46 8.7 47.6
08:35 1023 30.21 853 25.19 20.5 68.9 45 8.5 47.2
08:40 1023 30.21 853 25.19 20.9 69.6 46 8.9 47.9
08:45 1023 30.21 853 25.19 21 69.7 45 8.9 48
08:50 1023 30.21 853 25.19 21.2 70.1 44 8.5 47.4
08:55 1023 30.21 853 25.19 20.9 69.5 43 8 46.5
09:00 1023 30.21 853 25.19 21.4 70.6 42 8 46.5
09:05 1023 30.21 853 25.19 22.5 72.5 41 8.8 47.8
09:10 1023 30.21 852 25.16 22.3 72.1 42 8.8 47.8
09:15 1023 30.21 853 25.19 22.7 72.8 43 9.7 49.5
09:20 1023 30.21 853 25.19 22.8 73.1 42 9.3 48.7
09:25 1023 30.21 853 25.19 22.8 73 43 9.7 49.5
09:30 1023 30.21 853 25.19 22.5 72.5 44 9.8 49.6
09:35 1023 30.21 852 25.16 22.7 72.9 41 9.1 48.4
09:40 1023 30.21 852 25.16 23.5 74.3 40 9.4 48.9
09:45 1023 30.21 852 25.16 23.5 74.2 41 9.6 49.3
09:50 1023 30.21 852 25.16 23.3 73.9 43 10.4 50.6
09:55 1023 30.21 852 25.16 23.8 74.9 41 9.9 49.8
10:00 1023 30.21 852 25.16 23.8 74.9 42 10.4 50.8
10:05 1023 30.21 852 25.16 23.6 74.4 43 10.4 50.7
10:10 1023 30.21 852 25.16 23.5 74.4 42 10.2 50.4
10:15 1023 30.21 852 25.16 23.4 74.2 44 10.7 51.2
10:20 1023 30.21 852 25.16 23.2 73.7 44 10.4 50.7
10:25 1023 30.21 852 25.16 23.3 73.9 45 10.7 51.3
10:30 1023 30.21 852 25.16 23.5 74.3 44 10.6 51
10:35 1023 30.21 852 25.16 23.5 74.2 44 10.6 51
10:40 1023 30.21 852 25.16 23.7 74.6 44 11 51.9
10:45 1023 30.21 852 25.16 23.1 73.7 45 10.8 51.5
10:50 1023 30.21 852 25.16 23.6 74.4 44 10.8 51.5
10:55 1023 30.21 852 25.16 24.1 75.4 43 11.1 51.9
11:00 1023 30.21 852 25.16 24.5 76.1 43 11.3 52.4
11:05 1023 30.21 852 25.16 24.5 76 44 11.6 53
11:10 1023 30.21 852 25.16 24.2 75.5 44 11.5 52.7
11:15 1023 30.21 852 25.16 23.6 74.4 46 11.3 52.4
11:20 1023 30.21 852 25.16 24.8 76.7 42 11.2 52.2
11:25 1023 30.21 852 25.16 24.6 76.4 45 12.2 54
11:30 1023 30.21 852 25.16 24.7 76.5 42 11 51.8
11:35 1023 30.21 852 25.16 24.9 76.8 44 12 53.6
11:40 1022 30.18 852 25.16 23.2 73.8 47 11.5 52.8
11:45 1022 30.18 852 25.16 23.1 73.6 46 11.1 52
11:50 1022 30.18 852 25.16 23.4 74.1 47 11.7 53.1
11:55 1022 30.18 852 25.16 23.4 74.1 47 11.5 52.8
12:00 1022 30.18 852 25.16 23.3 73.9 48 11.8 53.2
12:05 1022 30.18 852 25.16 23.3 74 46 11.4 52.4
12:10 1023 30.21 852 25.16 23 73.3 48 11.6 52.8
12:15 1023 30.21 852 25.16 22.6 72.6 49 11.6 52.8
12:20 1023 30.21 852 25.16 22.8 73.1 51 12.4 54.3
12:25 1022 30.18 852 25.16 23.5 74.3 42 10 50
12:30 1022 30.18 852 25.16 24.4 75.9 41 10.6 51
12:35 1022 30.18 851 25.13 25 77 31 6.7 44.1
12:40 1022 30.18 851 25.13 25 77 36 8.9 48.1
12:45 1022 30.18 851 25.13 25.8 78.4 32 7.9 46.2
12:50 1022 30.18 851 25.13 25.6 78.1 33 8.4 47.2
12:55 1022 30.18 851 25.13 24.8 76.7 35 8.7 47.7
13:00 1022 30.18 851 25.13 24.6 76.2 39 9.7 49.5
13:05 1022 30.18 851 25.13 24.3 75.7 40 9.9 49.8
13:10 1022 30.18 851 25.13 24.3 75.7 38 9.3 48.8
13:15 1022 30.18 851 25.13 24.2 75.5 42 10.6 51
13:20 1022 30.18 851 25.13 25.1 77.1 38 10 50
13:25 1022 30.18 851 25.13 25.4 77.6 32 7.8 46.1
13:30 1022 30.18 851 25.13 26 78.7 31 7.9 46.2
13:35 1022 30.18 851 25.13 26.6 79.9 29 7.4 45.3
13:40 1022 30.18 851 25.13 26.8 80.3 31 8.5 47.3
13:45 1022 30.18 851 25.13 26.6 79.8 31 8.4 47.1
13:50 1022 30.18 851 25.13 26.3 79.3 32 8.5 47.3
13:55 1022 30.18 851 25.13 25.8 78.4 33 8.5 47.3
14:00 1022 30.18 851 25.13 25.8 78.4 33 8.6 47.6
14:05 1022 30.18 851 25.13 25.7 78.2 33 8.6 47.4
14:10 1022 30.18 851 25.13 25.4 77.6 32 7.8 46
14:15 1022 30.18 851 25.13 25.1 77.2 32 7.4 45.4
14:20 1022 30.18 851 25.13 25.1 77.3 33 7.8 46.1
14:25 1022 30.18 851 25.13 25.4 77.8 36 9.4 48.9
14:30 1022 30.18 851 25.13 25.4 77.8 35 9.2 48.6
14:35 1022 30.18 851 25.13 25.4 77.7 32 7.7 45.8
14:40 1022 30.18 851 25.13 25.8 78.4 32 8.3 46.9
14:45 1022 30.18 851 25.13 25.7 78.2 32 8 46.5
14:50 1022 30.18 851 25.13 25.6 78.1 32 8 46.4
14:55 1021 30.15 851 25.13 26 78.8 31 7.8 46
15:00 1021 30.15 850 25.1 26.5 79.6 31 8 46.4
15:05 1021 30.15 850 25.1 26.5 79.7 29 7.3 45.1
15:10 1021 30.15 850 25.1 26.5 79.8 31 8.2 46.7
15:15 1021 30.15 850 25.1 27 80.5 28 7.4 45.3
15:20 1021 30.15 850 25.1 27.6 81.7 26 6.7 44
15:25 1021 30.15 850 25.1 27.7 81.8 26 6.7 44.1
15:30 1021 30.15 850 25.1 27.6 81.7 26 6.8 44.3
15:35 1021 30.15 850 25.1 27.4 81.4 27 6.9 44.5
15:40 1021 30.15 850 25.1 27.6 81.7 26 6.8 44.2
15:45 1021 30.15 850 25.1 27.6 81.7 27 7.4 45.3
15:50 1021 30.15 850 25.1 27.1 80.8 29 7.6 45.7
15:55 1021 30.15 850 25.1 27.3 81.1 28 7.5 45.6
16:00 1021 30.15 850 25.1 27.7 81.8 27 7.4 45.3
16:05 1021 30.15 850 25.1 28 82.4 27 7.5 45.4
16:10 1021 30.15 850 25.1 28 82.4 26 7.3 45.1
16:15 1021 30.15 850 25.1 28 82.3 26 7 44.6
16:20 1021 30.15 850 25.1 28 82.4 26 7.1 44.8
16:25 1020 30.12 850 25.1 28.1 82.6 26 6.9 44.4
16:30 1020 30.12 850 25.1 28.1 82.6 26 7.3 45.1
16:35 1020 30.12 850 25.1 28.2 82.8 26 7 44.6
16:40 1020 30.12 850 25.1 28.4 83.1 29 8.7 47.7
16:45 1020 30.12 850 25.1 28.4 83.1 29 9.1 48.4
16:50 1020 30.12 849 25.07 28 82.4 29 8.8 47.8
16:55 1020 30.12 849 25.07 27.7 81.9 30 9 48.1
17:00 1020 30.12 849 25.07 27.2 80.9 30 8.6 47.4
17:05 1020 30.12 849 25.07 27.3 81.1 29 8 46.5
17:10 1020 30.12 849 25.07 27.7 81.8 29 8.6 47.4
17:15 1020 30.12 849 25.07 27.8 82 29 8.4 47.1
17:20 1020 30.12 849 25.07 27.6 81.6 30 8.7 47.7
17:25 1020 30.12 849 25.07 27.2 81 30 8.5 47.3
17:30 1020 30.12 849 25.07 27 80.6 30 8.2 46.7
17:35 1020 30.12 849 25.07 26.8 80.3 30 8.3 47
17:40 1020 30.12 849 25.07 26.7 80.1 31 8.5 47.3
17:45 1020 30.12 849 25.07 26.7 80 30 7.7 45.9
17:50 1020 30.12 849 25.07 26.6 79.9 30 8 46.4
17:55 1020 30.12 849 25.07 26.6 79.9 30 7.9 46.2
18:00 1020 30.12 849 25.07 26.6 79.8 30 8 46.3
18:05 1020 30.12 849 25.07 26.5 79.7 30 7.7 45.9
18:10 1020 30.12 849 25.07 26.4 79.5 30 7.9 46.2
18:15 1020 30.12 849 25.07 26.3 79.4 31 8 46.5
18:20 1020 30.12 849 25.07 26.1 79 31 8.1 46.6
18:25 1020 30.12 849 25.07 25.9 78.6 32 8.2 46.8
18:30 1020 30.12 849 25.07 25.7 78.2 33 8.3 47
18:35 1020 30.12 849 25.07 25.5 77.8 32 7.9 46.3
18:40 1020 30.12 849 25.07 25.3 77.5 33 8 46.5
18:45 1020 30.12 849 25.07 25.1 77.1 32 7.6 45.7
18:50 1020 30.12 849 25.07 24.9 76.8 33 7.8 46.1
18:55 1020 30.12 849 25.07 24.6 76.3 34 7.9 46.3
19:00 1020 30.12 849 25.07 24.4 75.8 36 8.4 47.2
19:05 1020 30.12 849 25.07 24 75.2 37 8.6 47.4
19:10 1020 30.12 849 25.07 23.6 74.6 38 8.8 47.8
19:15 1020 30.12 849 25.07 23.3 74 38 8.5 47.3
19:20 1020 30.12 849 25.07 23.4 74.1 38 8.4 47.2
19:25 1020 30.12 849 25.07 23.3 73.9 39 8.6 47.5
19:30 1020 30.12 849 25.07 23.1 73.6 39 8.4 47.2
19:35 1020 30.12 849 25.07 23 73.5 39 8.4 47.2
19:40 1020 30.12 849 25.07 22.8 73.1 40 8.5 47.3
19:45 1020 30.12 849 25.07 22.7 72.9 37 7.6 45.7
19:50 1020 30.12 849 25.07 23 73.3 37 7.8 46
19:55 1020 30.12 849 25.07 22.9 73.1 37 7.8 46
20:00 1020 30.12 849 25.07 22.9 73.2 38 7.9 46.2
20:05 1020 30.12 849 25.07 22.9 73.3 38 8.1 46.5
20:10 1020 30.12 849 25.07 22.8 73.1 38 8 46.3
20:15 1020 30.12 849 25.07 22.9 73.2 38 8.1 46.6
20:20 1020 30.12 849 25.07 22.9 73.3 38 8 46.4
20:25 1020 30.12 849 25.07 23.1 73.6 38 8 46.4
20:30 1020 30.12 849 25.07 23.2 73.8 37 8.1 46.5
20:35 1020 30.12 849 25.07 23.1 73.6 38 8.1 46.7
20:40 1020 30.12 849 25.07 23.1 73.5 38 8.2 46.7
20:45 1020 30.12 849 25.07 23 73.4 38 8.2 46.7
20:50 1020 30.12 849 25.07 23 73.4 38 8.2 46.7
20:55 1020 30.12 849 25.07 23 73.5 38 8.2 46.8
21:00 1020 30.12 850 25.1 23.1 73.5 38 8.2 46.8
21:05 1021 30.15 851 25.13 23.1 73.5 38 8.2 46.7
21:10 1022 30.18 851 25.13 22.7 72.9 40 8.5 47.3
21:15 1022 30.18 851 25.13 22 71.6 45 9.7 49.4
21:20 1022 30.18 851 25.13 21.3 70.3 48 9.9 49.9
21:25 1022 30.18 851 25.13 20.8 69.5 50 10.3 50.5
21:30 1022 30.18 851 25.13 20.3 68.5 54 11 51.7
21:35 1022 30.18 851 25.13 19.9 67.9 54 10.4 50.7
21:40 1021 30.15 851 25.13 20 68 53 10.2 50.3
21:45 1021 30.15 851 25.13 20.2 68.4 51 9.8 49.7
21:50 1021 30.15 851 25.13 20.4 68.7 52 10.4 50.7
21:55 1021 30.15 851 25.13 20 67.9 55 10.6 51.2
22:00 1021 30.15 851 25.13 19.7 67.5 54 10.3 50.5
22:05 1021 30.15 851 25.13 19.8 67.6 56 10.9 51.6
22:10 1021 30.15 851 25.13 19.6 67.4 54 10.2 50.4
22:15 1021 30.15 851 25.13 19.4 67 54 10.1 50.2
22:20 1022 30.18 851 25.13 19.2 66.5 55 10.1 50.2
22:25 1022 30.18 851 25.13 19 66.2 55 10 49.9
22:30 1022 30.18 851 25.13 18.9 65.9 57 10.2 50.3
22:35 1021 30.15 851 25.13 18.7 65.7 57 10.1 50.1
22:40 1022 30.18 851 25.13 18.6 65.4 57 10.1 50.1
22:45 1022 30.18 851 25.13 18.8 65.8 54 9.4 48.9
22:50 1022 30.18 851 25.13 19.2 66.5 53 9.4 48.9
22:55 1022 30.18 851 25.13 19.2 66.5 54 9.8 49.6
23:00 1022 30.18 851 25.13 19.1 66.4 55 9.9 49.8
23:05 1022 30.18 851 25.13 19.1 66.3 55 10 50
23:10 1022 30.18 851 25.13 19 66.3 56 10.1 50.2
23:15 1022 30.18 851 25.13 19.1 66.4 55 10 49.9
23:20 1022 30.18 851 25.13 19.2 66.5 54 9.9 49.8
23:25 1022 30.18 851 25.13 19.3 66.8 54 10 50
23:30 1022 30.18 851 25.13 19.3 66.7 55 10 50
23:35 1022 30.18 851 25.13 19.3 66.7 54 9.9 49.8
23:40 1022 30.18 851 25.13 19.3 66.8 55 10.1 50.1
23:45 1022 30.18 851 25.13 19.3 66.7 55 10.1 50.2
23:50 1022 30.18 851 25.13 19.2 66.6 55 10.2 50.3
23:55 1022 30.18 851 25.13 19.1 66.4 56 10.2 50.4
24:00 1022 30.18 851 25.13 18.9 66.1 57 10.3 50.5